sensor_id;sensor_type;location;lat;lon;timestamp;temperature;humidity
33831;DHT22;20137;48.834;8.732;2023-02-18T00:01:20;10.50;99.90
33831;DHT22;20137;48.834;8.732;2023-02-18T00:03:46;10.60;99.90
33831;DHT22;20137;48.834;8.732;2023-02-18T00:06:21;10.50;99.90
33831;DHT22;20137;48.834;8.732;2023-02-18T00:08:47;10.50;99.90
33831;DHT22;20137;48.834;8.732;2023-02-18T00:11:13;10.50;99.90
33831;DHT22;20137;48.834;8.732;2023-02-18T00:13:40;10.50;99.90
33831;DHT22;20137;48.834;8.732;2023-02-18T00:16:10;10.40;99.90
33831;DHT22;20137;48.834;8.732;2023-02-18T00:18:37;10.40;99.90
33831;DHT22;20137;48.834;8.732;2023-02-18T00:21:06;10.40;99.90
33831;DHT22;20137;48.834;8.732;2023-02-18T00:23:33;10.50;99.90
33831;DHT22;20137;48.834;8.732;2023-02-18T00:26:04;10.50;99.90
33831;DHT22;20137;48.834;8.732;2023-02-18T00:28:31;10.50;99.90
33831;DHT22;20137;48.834;8.732;2023-02-18T00:30:56;10.50;99.90
33831;DHT22;20137;48.834;8.732;2023-02-18T00:33:22;10.50;99.90
33831;DHT22;20137;48.834;8.732;2023-02-18T00:35:48;10.40;99.90
33831;DHT22;20137;48.834;8.732;2023-02-18T00:38:14;10.40;99.90
33831;DHT22;20137;48.834;8.732;2023-02-18T00:40:40;10.40;99.90
33831;DHT22;20137;48.834;8.732;2023-02-18T00:43:06;10.50;99.90
33831;DHT22;20137;48.834;8.732;2023-02-18T00:45:32;10.40;99.90
33831;DHT22;20137;48.834;8.732;2023-02-18T00:47:58;10.40;99.90
33831;DHT22;20137;48.834;8.732;2023-02-18T00:50:24;10.40;99.90
33831;DHT22;20137;48.834;8.732;2023-02-18T00:52:49;10.40;99.90
33831;DHT22;20137;48.834;8.732;2023-02-18T00:55:15;10.60;99.90
33831;DHT22;20137;48.834;8.732;2023-02-18T00:57:41;10.50;99.90
33831;DHT22;20137;48.834;8.732;2023-02-18T01:00:07;10.50;99.90
33831;DHT22;20137;48.834;8.732;2023-02-18T01:02:33;10.50;99.90
33831;DHT22;20137;48.834;8.732;2023-02-18T01:04:59;10.50;99.90
33831;DHT22;20137;48.834;8.732;2023-02-18T01:07:25;10.50;99.90
33831;DHT22;20137;48.834;8.732;2023-02-18T01:09:50;10.50;99.90
33831;DHT22;20137;48.834;8.732;2023-02-18T01:12:16;10.50;99.90
33831;DHT22;20137;48.834;8.732;2023-02-18T01:14:42;10.50;99.90
33831;DHT22;20137;48.834;8.732;2023-02-18T01:17:08;10.50;99.90
33831;DHT22;20137;48.834;8.732;2023-02-18T01:19:33;10.60;99.90
33831;DHT22;20137;48.834;8.732;2023-02-18T01:21:59;10.50;99.90
33831;DHT22;20137;48.834;8.732;2023-02-18T01:24:25;10.40;99.90
33831;DHT22;20137;48.834;8.732;2023-02-18T01:26:51;10.50;99.90
33831;DHT22;20137;48.834;8.732;2023-02-18T01:29:16;10.50;99.90
33831;DHT22;20137;48.834;8.732;2023-02-18T01:31:42;10.50;99.90
33831;DHT22;20137;48.834;8.732;2023-02-18T01:34:08;10.50;99.90
33831;DHT22;20137;48.834;8.732;2023-02-18T01:36:33;10.40;99.90
33831;DHT22;20137;48.834;8.732;2023-02-18T01:38:59;10.50;99.90
33831;DHT22;20137;48.834;8.732;2023-02-18T01:41:25;10.40;99.90
33831;DHT22;20137;48.834;8.732;2023-02-18T01:46:35;10.50;99.90
33831;DHT22;20137;48.834;8.732;2023-02-18T01:49:01;10.50;99.90
33831;DHT22;20137;48.834;8.732;2023-02-18T01:51:40;10.40;99.90
33831;DHT22;20137;48.834;8.732;2023-02-18T01:54:15;10.40;99.90
33831;DHT22;20137;48.834;8.732;2023-02-18T01:56:56;10.50;99.90
33831;DHT22;20137;48.834;8.732;2023-02-18T01:59:29;10.50;99.90
33831;DHT22;20137;48.834;8.732;2023-02-18T02:01:55;10.40;99.90
33831;DHT22;20137;48.834;8.732;2023-02-18T02:04:22;10.50;99.90
33831;DHT22;20137;48.834;8.732;2023-02-18T02:06:47;10.40;99.90
33831;DHT22;20137;48.834;8.732;2023-02-18T02:09:16;10.40;99.90
33831;DHT22;20137;48.834;8.732;2023-02-18T02:17:44;10.40;99.90
33831;DHT22;20137;48.834;8.732;2023-02-18T02:20:27;10.40;99.90
33831;DHT22;20137;48.834;8.732;2023-02-18T02:31:48;10.60;99.90
33831;DHT22;20137;48.834;8.732;2023-02-18T02:37:01;10.60;99.90
33831;DHT22;20137;48.834;8.732;2023-02-18T02:45:10;10.60;99.90
33831;DHT22;20137;48.834;8.732;2023-02-18T02:47:50;10.50;99.90
33831;DHT22;20137;48.834;8.732;2023-02-18T02:50:26;10.50;99.90
33831;DHT22;20137;48.834;8.732;2023-02-18T02:52:57;10.60;99.90
33831;DHT22;20137;48.834;8.732;2023-02-18T02:55:23;10.60;99.90
33831;DHT22;20137;48.834;8.732;2023-02-18T02:57:52;10.70;99.90
33831;DHT22;20137;48.834;8.732;2023-02-18T03:00:44;10.70;99.90
33831;DHT22;20137;48.834;8.732;2023-02-18T03:12:14;10.60;99.90
33831;DHT22;20137;48.834;8.732;2023-02-18T03:14:43;10.60;99.90
33831;DHT22;20137;48.834;8.732;2023-02-18T03:17:22;10.50;99.90
33831;DHT22;20137;48.834;8.732;2023-02-18T03:19:56;10.50;99.90
33831;DHT22;20137;48.834;8.732;2023-02-18T03:22:28;10.50;99.90
33831;DHT22;20137;48.834;8.732;2023-02-18T03:24:56;10.60;99.90
33831;DHT22;20137;48.834;8.732;2023-02-18T03:27:24;10.60;99.90
33831;DHT22;20137;48.834;8.732;2023-02-18T03:30:13;10.50;99.90
33831;DHT22;20137;48.834;8.732;2023-02-18T03:32:40;10.50;99.90
33831;DHT22;20137;48.834;8.732;2023-02-18T03:35:10;10.50;99.90
33831;DHT22;20137;48.834;8.732;2023-02-18T03:37:39;10.50;99.90
33831;DHT22;20137;48.834;8.732;2023-02-18T03:40:08;10.50;99.90
33831;DHT22;20137;48.834;8.732;2023-02-18T03:42:34;10.50;99.90
33831;DHT22;20137;48.834;8.732;2023-02-18T03:45:00;10.60;99.90
33831;DHT22;20137;48.834;8.732;2023-02-18T03:47:26;10.60;99.90
33831;DHT22;20137;48.834;8.732;2023-02-18T03:49:52;10.60;99.90
33831;DHT22;20137;48.834;8.732;2023-02-18T03:52:17;10.70;99.90
33831;DHT22;20137;48.834;8.732;2023-02-18T03:54:43;10.70;99.90
33831;DHT22;20137;48.834;8.732;2023-02-18T03:57:09;10.70;99.90
33831;DHT22;20137;48.834;8.732;2023-02-18T03:59:34;10.70;99.90
33831;DHT22;20137;48.834;8.732;2023-02-18T04:02:00;10.70;99.90
33831;DHT22;20137;48.834;8.732;2023-02-18T04:04:27;10.70;99.90
33831;DHT22;20137;48.834;8.732;2023-02-18T04:06:53;10.70;99.90
33831;DHT22;20137;48.834;8.732;2023-02-18T04:09:18;10.70;99.90
33831;DHT22;20137;48.834;8.732;2023-02-18T04:11:44;10.70;99.90
33831;DHT22;20137;48.834;8.732;2023-02-18T04:14:12;10.80;99.90
33831;DHT22;20137;48.834;8.732;2023-02-18T04:16:38;10.80;99.90
33831;DHT22;20137;48.834;8.732;2023-02-18T04:19:04;10.80;99.90
33831;DHT22;20137;48.834;8.732;2023-02-18T04:21:30;10.70;99.90
33831;DHT22;20137;48.834;8.732;2023-02-18T04:23:56;10.80;99.90
33831;DHT22;20137;48.834;8.732;2023-02-18T04:26:21;10.70;99.90
33831;DHT22;20137;48.834;8.732;2023-02-18T04:28:47;10.80;99.90
33831;DHT22;20137;48.834;8.732;2023-02-18T04:31:13;10.70;99.90
33831;DHT22;20137;48.834;8.732;2023-02-18T04:33:39;10.70;99.90
33831;DHT22;20137;48.834;8.732;2023-02-18T04:36:05;10.70;99.90
33831;DHT22;20137;48.834;8.732;2023-02-18T04:38:31;10.70;99.90
33831;DHT22;20137;48.834;8.732;2023-02-18T04:40:57;10.70;99.90
33831;DHT22;20137;48.834;8.732;2023-02-18T04:43:23;10.70;99.90
33831;DHT22;20137;48.834;8.732;2023-02-18T04:45:49;10.70;99.90
33831;DHT22;20137;48.834;8.732;2023-02-18T04:48:14;10.70;99.90
33831;DHT22;20137;48.834;8.732;2023-02-18T04:50:40;10.70;99.90
33831;DHT22;20137;48.834;8.732;2023-02-18T04:53:06;10.70;99.90
33831;DHT22;20137;48.834;8.732;2023-02-18T04:55:31;10.70;99.90
33831;DHT22;20137;48.834;8.732;2023-02-18T04:57:57;10.70;99.90
33831;DHT22;20137;48.834;8.732;2023-02-18T05:00:23;10.80;99.90
33831;DHT22;20137;48.834;8.732;2023-02-18T05:02:48;10.70;99.90
33831;DHT22;20137;48.834;8.732;2023-02-18T05:05:15;10.80;99.90
33831;DHT22;20137;48.834;8.732;2023-02-18T05:07:40;10.70;99.90
33831;DHT22;20137;48.834;8.732;2023-02-18T05:10:08;10.80;99.90
33831;DHT22;20137;48.834;8.732;2023-02-18T05:12:34;10.80;99.90
33831;DHT22;20137;48.834;8.732;2023-02-18T05:15:00;10.80;99.90
33831;DHT22;20137;48.834;8.732;2023-02-18T05:17:25;10.90;99.90
33831;DHT22;20137;48.834;8.732;2023-02-18T05:19:51;10.80;99.90
33831;DHT22;20137;48.834;8.732;2023-02-18T05:22:16;10.70;99.90
33831;DHT22;20137;48.834;8.732;2023-02-18T05:24:42;10.70;99.90
33831;DHT22;20137;48.834;8.732;2023-02-18T05:27:07;10.80;99.90
33831;DHT22;20137;48.834;8.732;2023-02-18T05:29:33;10.80;99.90
33831;DHT22;20137;48.834;8.732;2023-02-18T05:31:59;10.90;99.90
33831;DHT22;20137;48.834;8.732;2023-02-18T05:34:24;10.90;99.90
33831;DHT22;20137;48.834;8.732;2023-02-18T05:36:50;10.90;99.90
33831;DHT22;20137;48.834;8.732;2023-02-18T05:39:16;10.90;99.90
33831;DHT22;20137;48.834;8.732;2023-02-18T05:41:41;10.90;99.90
33831;DHT22;20137;48.834;8.732;2023-02-18T05:44:07;10.90;99.90
33831;DHT22;20137;48.834;8.732;2023-02-18T05:46:51;10.80;99.90
33831;DHT22;20137;48.834;8.732;2023-02-18T05:49:16;11.00;99.90
33831;DHT22;20137;48.834;8.732;2023-02-18T05:51:42;10.80;99.90
33831;DHT22;20137;48.834;8.732;2023-02-18T05:54:08;10.90;99.90
33831;DHT22;20137;48.834;8.732;2023-02-18T05:56:33;10.90;99.90
33831;DHT22;20137;48.834;8.732;2023-02-18T05:58:59;10.80;99.90
33831;DHT22;20137;48.834;8.732;2023-02-18T06:01:25;10.80;99.90
33831;DHT22;20137;48.834;8.732;2023-02-18T06:03:50;10.80;99.90
33831;DHT22;20137;48.834;8.732;2023-02-18T06:06:16;10.90;99.90
33831;DHT22;20137;48.834;8.732;2023-02-18T06:08:42;10.90;99.90
33831;DHT22;20137;48.834;8.732;2023-02-18T06:11:07;10.90;99.90
33831;DHT22;20137;48.834;8.732;2023-02-18T06:13:33;10.90;99.90
33831;DHT22;20137;48.834;8.732;2023-02-18T06:15:59;10.80;99.90
33831;DHT22;20137;48.834;8.732;2023-02-18T06:18:24;10.90;99.90
33831;DHT22;20137;48.834;8.732;2023-02-18T06:20:50;10.90;99.90
33831;DHT22;20137;48.834;8.732;2023-02-18T06:23:16;11.00;99.90
33831;DHT22;20137;48.834;8.732;2023-02-18T06:25:41;11.00;99.90
33831;DHT22;20137;48.834;8.732;2023-02-18T06:28:07;11.00;99.90
33831;DHT22;20137;48.834;8.732;2023-02-18T06:30:33;10.90;99.90
33831;DHT22;20137;48.834;8.732;2023-02-18T06:32:58;10.90;99.90
33831;DHT22;20137;48.834;8.732;2023-02-18T06:35:24;10.90;99.90
33831;DHT22;20137;48.834;8.732;2023-02-18T06:37:50;10.90;99.90
33831;DHT22;20137;48.834;8.732;2023-02-18T06:40:16;10.90;99.90
33831;DHT22;20137;48.834;8.732;2023-02-18T06:42:42;10.90;99.90
33831;DHT22;20137;48.834;8.732;2023-02-18T06:45:08;10.90;99.90
33831;DHT22;20137;48.834;8.732;2023-02-18T06:47:34;10.90;99.90
33831;DHT22;20137;48.834;8.732;2023-02-18T06:50:00;11.00;99.90
33831;DHT22;20137;48.834;8.732;2023-02-18T06:52:25;11.00;99.90
33831;DHT22;20137;48.834;8.732;2023-02-18T06:54:51;10.90;99.90
33831;DHT22;20137;48.834;8.732;2023-02-18T06:57:17;11.00;99.90
33831;DHT22;20137;48.834;8.732;2023-02-18T06:59:43;11.00;99.90
33831;DHT22;20137;48.834;8.732;2023-02-18T07:02:11;11.00;99.90
33831;DHT22;20137;48.834;8.732;2023-02-18T07:04:37;11.00;99.90
33831;DHT22;20137;48.834;8.732;2023-02-18T07:07:03;11.00;99.90
33831;DHT22;20137;48.834;8.732;2023-02-18T07:09:28;11.00;99.90
33831;DHT22;20137;48.834;8.732;2023-02-18T07:11:54;11.00;99.90
33831;DHT22;20137;48.834;8.732;2023-02-18T07:14:20;11.00;99.90
33831;DHT22;20137;48.834;8.732;2023-02-18T07:16:45;11.00;99.90
33831;DHT22;20137;48.834;8.732;2023-02-18T07:19:11;11.00;99.90
33831;DHT22;20137;48.834;8.732;2023-02-18T07:21:37;11.00;99.90
33831;DHT22;20137;48.834;8.732;2023-02-18T07:24:02;11.10;99.90
33831;DHT22;20137;48.834;8.732;2023-02-18T07:26:28;11.10;99.90
33831;DHT22;20137;48.834;8.732;2023-02-18T07:28:54;11.10;99.90
33831;DHT22;20137;48.834;8.732;2023-02-18T07:31:19;11.10;99.90
33831;DHT22;20137;48.834;8.732;2023-02-18T07:33:45;11.20;99.90
33831;DHT22;20137;48.834;8.732;2023-02-18T07:36:10;11.20;99.90
33831;DHT22;20137;48.834;8.732;2023-02-18T07:38:36;11.30;99.90
33831;DHT22;20137;48.834;8.732;2023-02-18T07:41:02;11.30;99.90
33831;DHT22;20137;48.834;8.732;2023-02-18T07:43:27;11.30;99.90
33831;DHT22;20137;48.834;8.732;2023-02-18T07:45:53;11.30;99.90
33831;DHT22;20137;48.834;8.732;2023-02-18T07:48:19;11.40;99.90
33831;DHT22;20137;48.834;8.732;2023-02-18T07:50:45;11.40;99.90
33831;DHT22;20137;48.834;8.732;2023-02-18T07:53:12;11.40;99.90
33831;DHT22;20137;48.834;8.732;2023-02-18T07:55:38;11.50;99.90
33831;DHT22;20137;48.834;8.732;2023-02-18T07:58:22;11.50;99.90
33831;DHT22;20137;48.834;8.732;2023-02-18T08:00:50;11.50;99.90
33831;DHT22;20137;48.834;8.732;2023-02-18T08:03:17;11.50;99.90
33831;DHT22;20137;48.834;8.732;2023-02-18T08:05:43;11.50;99.90
33831;DHT22;20137;48.834;8.732;2023-02-18T08:08:16;11.50;99.90
33831;DHT22;20137;48.834;8.732;2023-02-18T08:10:42;11.50;99.90
33831;DHT22;20137;48.834;8.732;2023-02-18T08:13:08;11.50;99.90
33831;DHT22;20137;48.834;8.732;2023-02-18T08:15:34;11.50;99.90
33831;DHT22;20137;48.834;8.732;2023-02-18T08:18:00;11.60;99.90
33831;DHT22;20137;48.834;8.732;2023-02-18T08:20:27;11.50;99.90
33831;DHT22;20137;48.834;8.732;2023-02-18T08:22:52;11.60;99.90
33831;DHT22;20137;48.834;8.732;2023-02-18T08:25:18;11.60;99.90
33831;DHT22;20137;48.834;8.732;2023-02-18T08:27:44;11.50;99.90
33831;DHT22;20137;48.834;8.732;2023-02-18T08:30:10;11.60;99.90
33831;DHT22;20137;48.834;8.732;2023-02-18T08:32:36;11.60;99.90
33831;DHT22;20137;48.834;8.732;2023-02-18T08:35:02;11.60;99.90
33831;DHT22;20137;48.834;8.732;2023-02-18T08:37:28;11.60;99.90
33831;DHT22;20137;48.834;8.732;2023-02-18T08:39:54;11.70;99.90
33831;DHT22;20137;48.834;8.732;2023-02-18T08:42:20;11.70;99.90
33831;DHT22;20137;48.834;8.732;2023-02-18T08:44:45;11.70;99.90
33831;DHT22;20137;48.834;8.732;2023-02-18T08:47:11;11.70;99.90
33831;DHT22;20137;48.834;8.732;2023-02-18T08:49:37;11.70;99.90
33831;DHT22;20137;48.834;8.732;2023-02-18T08:52:03;11.70;99.90
33831;DHT22;20137;48.834;8.732;2023-02-18T08:54:29;11.70;99.90
33831;DHT22;20137;48.834;8.732;2023-02-18T08:56:55;11.80;99.90
33831;DHT22;20137;48.834;8.732;2023-02-18T08:59:23;11.90;99.90
33831;DHT22;20137;48.834;8.732;2023-02-18T09:01:49;12.10;99.90
33831;DHT22;20137;48.834;8.732;2023-02-18T09:04:14;12.10;99.90
33831;DHT22;20137;48.834;8.732;2023-02-18T09:06:40;12.30;99.90
33831;DHT22;20137;48.834;8.732;2023-02-18T09:09:06;12.30;99.90
33831;DHT22;20137;48.834;8.732;2023-02-18T09:11:32;12.40;99.90
33831;DHT22;20137;48.834;8.732;2023-02-18T09:13:58;12.40;99.90
33831;DHT22;20137;48.834;8.732;2023-02-18T09:16:23;12.50;99.90
33831;DHT22;20137;48.834;8.732;2023-02-18T09:18:49;12.40;99.90
33831;DHT22;20137;48.834;8.732;2023-02-18T09:21:16;12.50;99.90
33831;DHT22;20137;48.834;8.732;2023-02-18T09:23:43;12.50;99.90
33831;DHT22;20137;48.834;8.732;2023-02-18T09:26:13;12.60;99.90
33831;DHT22;20137;48.834;8.732;2023-02-18T09:28:40;12.60;99.90
33831;DHT22;20137;48.834;8.732;2023-02-18T09:31:12;12.50;99.90
33831;DHT22;20137;48.834;8.732;2023-02-18T09:33:40;12.50;99.90
33831;DHT22;20137;48.834;8.732;2023-02-18T09:36:07;12.50;99.90
33831;DHT22;20137;48.834;8.732;2023-02-18T09:38:33;12.40;99.90
33831;DHT22;20137;48.834;8.732;2023-02-18T09:41:01;12.40;99.90
33831;DHT22;20137;48.834;8.732;2023-02-18T09:43:37;12.40;99.90
33831;DHT22;20137;48.834;8.732;2023-02-18T09:46:23;12.40;99.90
33831;DHT22;20137;48.834;8.732;2023-02-18T09:48:51;12.40;99.90
33831;DHT22;20137;48.834;8.732;2023-02-18T09:51:17;12.20;99.90
33831;DHT22;20137;48.834;8.732;2023-02-18T09:53:44;12.10;99.90
33831;DHT22;20137;48.834;8.732;2023-02-18T09:56:17;12.10;99.90
33831;DHT22;20137;48.834;8.732;2023-02-18T09:58:46;12.20;99.90
33831;DHT22;20137;48.834;8.732;2023-02-18T10:01:26;12.20;99.90
33831;DHT22;20137;48.834;8.732;2023-02-18T10:03:54;12.10;99.90
33831;DHT22;20137;48.834;8.732;2023-02-18T10:06:25;12.10;99.90
33831;DHT22;20137;48.834;8.732;2023-02-18T10:08:52;12.10;99.90
33831;DHT22;20137;48.834;8.732;2023-02-18T10:11:29;12.20;99.90
33831;DHT22;20137;48.834;8.732;2023-02-18T10:13:55;12.20;99.90
33831;DHT22;20137;48.834;8.732;2023-02-18T10:16:23;12.20;99.90
33831;DHT22;20137;48.834;8.732;2023-02-18T10:18:54;12.40;99.90
33831;DHT22;20137;48.834;8.732;2023-02-18T10:21:24;12.40;99.90
33831;DHT22;20137;48.834;8.732;2023-02-18T10:26:40;12.40;99.90
33831;DHT22;20137;48.834;8.732;2023-02-18T10:29:15;12.50;99.90
33831;DHT22;20137;48.834;8.732;2023-02-18T10:31:44;12.50;99.90
33831;DHT22;20137;48.834;8.732;2023-02-18T10:45:28;12.30;99.90
33831;DHT22;20137;48.834;8.732;2023-02-18T10:48:27;12.30;99.90
33831;DHT22;20137;48.834;8.732;2023-02-18T10:50:59;12.30;99.90
33831;DHT22;20137;48.834;8.732;2023-02-18T10:53:36;12.20;99.90
33831;DHT22;20137;48.834;8.732;2023-02-18T10:56:03;12.10;99.90
33831;DHT22;20137;48.834;8.732;2023-02-18T10:58:35;12.20;99.90
33831;DHT22;20137;48.834;8.732;2023-02-18T11:01:18;12.30;99.90
33831;DHT22;20137;48.834;8.732;2023-02-18T11:03:50;12.40;99.90
33831;DHT22;20137;48.834;8.732;2023-02-18T11:08:58;12.30;99.90
33831;DHT22;20137;48.834;8.732;2023-02-18T11:11:33;12.30;99.90
33831;DHT22;20137;48.834;8.732;2023-02-18T11:14:02;12.40;99.90
33831;DHT22;20137;48.834;8.732;2023-02-18T11:16:39;12.40;99.90
33831;DHT22;20137;48.834;8.732;2023-02-18T11:19:13;12.50;99.90
33831;DHT22;20137;48.834;8.732;2023-02-18T11:21:50;12.40;99.90
33831;DHT22;20137;48.834;8.732;2023-02-18T11:24:16;12.40;99.90
33831;DHT22;20137;48.834;8.732;2023-02-18T11:26:44;12.30;99.90
33831;DHT22;20137;48.834;8.732;2023-02-18T11:29:21;12.50;99.90
33831;DHT22;20137;48.834;8.732;2023-02-18T11:31:51;12.40;99.90
33831;DHT22;20137;48.834;8.732;2023-02-18T11:34:25;12.40;99.90
33831;DHT22;20137;48.834;8.732;2023-02-18T11:36:52;12.50;99.90
33831;DHT22;20137;48.834;8.732;2023-02-18T11:39:26;12.50;99.90
33831;DHT22;20137;48.834;8.732;2023-02-18T11:42:00;12.30;99.90
33831;DHT22;20137;48.834;8.732;2023-02-18T11:44:36;12.20;99.90
33831;DHT22;20137;48.834;8.732;2023-02-18T11:47:16;12.20;99.90
33831;DHT22;20137;48.834;8.732;2023-02-18T11:49:59;12.20;99.90
33831;DHT22;20137;48.834;8.732;2023-02-18T11:52:29;12.30;99.90
33831;DHT22;20137;48.834;8.732;2023-02-18T11:55:20;12.40;99.90
33831;DHT22;20137;48.834;8.732;2023-02-18T11:57:52;12.40;99.90
33831;DHT22;20137;48.834;8.732;2023-02-18T12:00:45;12.30;99.90
33831;DHT22;20137;48.834;8.732;2023-02-18T12:03:34;12.40;99.90
33831;DHT22;20137;48.834;8.732;2023-02-18T12:06:04;12.40;99.90
33831;DHT22;20137;48.834;8.732;2023-02-18T12:08:48;12.40;99.90
33831;DHT22;20137;48.834;8.732;2023-02-18T12:11:51;12.50;99.90
33831;DHT22;20137;48.834;8.732;2023-02-18T12:14:17;12.50;99.90
33831;DHT22;20137;48.834;8.732;2023-02-18T12:19:44;12.40;99.90
33831;DHT22;20137;48.834;8.732;2023-02-18T12:22:41;12.40;99.90
33831;DHT22;20137;48.834;8.732;2023-02-18T12:25:24;12.40;99.90
33831;DHT22;20137;48.834;8.732;2023-02-18T12:27:57;12.40;99.90
33831;DHT22;20137;48.834;8.732;2023-02-18T12:30:47;12.20;99.90
33831;DHT22;20137;48.834;8.732;2023-02-18T12:33:45;12.20;99.90
33831;DHT22;20137;48.834;8.732;2023-02-18T12:42:43;12.20;99.90
33831;DHT22;20137;48.834;8.732;2023-02-18T12:48:08;12.40;99.90
33831;DHT22;20137;48.834;8.732;2023-02-18T12:53:20;12.50;99.90
33831;DHT22;20137;48.834;8.732;2023-02-18T12:58:59;12.90;99.90
33831;DHT22;20137;48.834;8.732;2023-02-18T13:04:02;12.80;99.90
33831;DHT22;20137;48.834;8.732;2023-02-18T13:06:58;12.90;99.90
33831;DHT22;20137;48.834;8.732;2023-02-18T13:15:30;12.70;99.90
33831;DHT22;20137;48.834;8.732;2023-02-18T13:18:05;12.50;99.90
33831;DHT22;20137;48.834;8.732;2023-02-18T13:20:42;12.50;99.90
33831;DHT22;20137;48.834;8.732;2023-02-18T13:23:21;12.60;99.90
33831;DHT22;20137;48.834;8.732;2023-02-18T13:25:55;12.60;99.90
33831;DHT22;20137;48.834;8.732;2023-02-18T13:28:30;12.40;99.90
33831;DHT22;20137;48.834;8.732;2023-02-18T13:37:13;12.60;99.90
33831;DHT22;20137;48.834;8.732;2023-02-18T13:39:48;12.70;99.90
33831;DHT22;20137;48.834;8.732;2023-02-18T13:52:49;12.30;99.90
33831;DHT22;20137;48.834;8.732;2023-02-18T13:55:20;12.40;99.90
33831;DHT22;20137;48.834;8.732;2023-02-18T13:57:48;12.40;99.90
33831;DHT22;20137;48.834;8.732;2023-02-18T14:00:24;12.40;99.90
33831;DHT22;20137;48.834;8.732;2023-02-18T14:02:59;12.50;99.90
33831;DHT22;20137;48.834;8.732;2023-02-18T14:05:38;12.40;99.90
33831;DHT22;20137;48.834;8.732;2023-02-18T14:08:35;12.30;99.90
33831;DHT22;20137;48.834;8.732;2023-02-18T14:13:41;12.20;99.90
33831;DHT22;20137;48.834;8.732;2023-02-18T14:16:08;12.30;99.90
33831;DHT22;20137;48.834;8.732;2023-02-18T14:21:36;12.10;99.90
33831;DHT22;20137;48.834;8.732;2023-02-18T14:24:05;12.20;99.90
33831;DHT22;20137;48.834;8.732;2023-02-18T14:26:36;12.30;99.90
33831;DHT22;20137;48.834;8.732;2023-02-18T14:29:29;12.30;99.90
33831;DHT22;20137;48.834;8.732;2023-02-18T14:32:10;12.20;99.90
33831;DHT22;20137;48.834;8.732;2023-02-18T14:43:00;12.00;99.90
33831;DHT22;20137;48.834;8.732;2023-02-18T14:45:33;11.90;99.90
33831;DHT22;20137;48.834;8.732;2023-02-18T14:50:53;11.80;99.90
33831;DHT22;20137;48.834;8.732;2023-02-18T14:53:22;11.70;99.90
33831;DHT22;20137;48.834;8.732;2023-02-18T14:55:52;11.60;99.90
33831;DHT22;20137;48.834;8.732;2023-02-18T14:58:29;11.40;99.90
33831;DHT22;20137;48.834;8.732;2023-02-18T15:00:57;11.50;99.90
33831;DHT22;20137;48.834;8.732;2023-02-18T15:03:26;11.50;99.90
33831;DHT22;20137;48.834;8.732;2023-02-18T15:05:52;11.40;99.90
33831;DHT22;20137;48.834;8.732;2023-02-18T15:08:19;11.50;99.90
33831;DHT22;20137;48.834;8.732;2023-02-18T15:11:06;11.40;99.90
33831;DHT22;20137;48.834;8.732;2023-02-18T15:13:35;11.40;99.90
33831;DHT22;20137;48.834;8.732;2023-02-18T15:16:07;11.40;99.90
33831;DHT22;20137;48.834;8.732;2023-02-18T15:18:35;11.40;99.90
33831;DHT22;20137;48.834;8.732;2023-02-18T15:21:05;11.40;99.90
33831;DHT22;20137;48.834;8.732;2023-02-18T15:23:38;11.30;99.90
33831;DHT22;20137;48.834;8.732;2023-02-18T15:26:05;11.40;99.90
33831;DHT22;20137;48.834;8.732;2023-02-18T15:28:37;11.40;99.90
33831;DHT22;20137;48.834;8.732;2023-02-18T15:31:10;11.40;99.90
33831;DHT22;20137;48.834;8.732;2023-02-18T15:33:42;11.40;99.90
33831;DHT22;20137;48.834;8.732;2023-02-18T15:36:12;11.40;99.90
33831;DHT22;20137;48.834;8.732;2023-02-18T15:38:38;11.30;99.90
33831;DHT22;20137;48.834;8.732;2023-02-18T15:41:10;11.40;99.90
33831;DHT22;20137;48.834;8.732;2023-02-18T15:43:38;11.40;99.90
33831;DHT22;20137;48.834;8.732;2023-02-18T15:46:11;11.40;99.90
33831;DHT22;20137;48.834;8.732;2023-02-18T15:48:45;11.30;99.90
33831;DHT22;20137;48.834;8.732;2023-02-18T15:51:15;11.30;99.90
33831;DHT22;20137;48.834;8.732;2023-02-18T15:53:44;11.30;99.90
33831;DHT22;20137;48.834;8.732;2023-02-18T15:56:19;11.20;99.90
33831;DHT22;20137;48.834;8.732;2023-02-18T15:58:46;11.20;99.90
33831;DHT22;20137;48.834;8.732;2023-02-18T16:01:26;11.20;99.90
33831;DHT22;20137;48.834;8.732;2023-02-18T16:03:53;11.10;99.90
33831;DHT22;20137;48.834;8.732;2023-02-18T16:06:26;11.00;99.90
33831;DHT22;20137;48.834;8.732;2023-02-18T16:11:39;10.90;99.90
33831;DHT22;20137;48.834;8.732;2023-02-18T16:14:05;10.90;99.90
33831;DHT22;20137;48.834;8.732;2023-02-18T16:16:36;10.90;99.90
33831;DHT22;20137;48.834;8.732;2023-02-18T16:19:04;10.80;99.90
33831;DHT22;20137;48.834;8.732;2023-02-18T16:21:43;10.80;99.90
33831;DHT22;20137;48.834;8.732;2023-02-18T16:24:26;10.80;99.90
33831;DHT22;20137;48.834;8.732;2023-02-18T16:26:59;10.80;99.90
33831;DHT22;20137;48.834;8.732;2023-02-18T16:29:39;10.60;99.90
33831;DHT22;20137;48.834;8.732;2023-02-18T16:32:05;10.60;99.90
33831;DHT22;20137;48.834;8.732;2023-02-18T16:34:31;10.50;99.90
33831;DHT22;20137;48.834;8.732;2023-02-18T16:36:56;10.50;99.90
33831;DHT22;20137;48.834;8.732;2023-02-18T16:39:41;10.50;99.90
33831;DHT22;20137;48.834;8.732;2023-02-18T16:42:11;10.40;99.90
33831;DHT22;20137;48.834;8.732;2023-02-18T16:44:37;10.30;99.90
33831;DHT22;20137;48.834;8.732;2023-02-18T16:47:03;10.30;99.90
33831;DHT22;20137;48.834;8.732;2023-02-18T16:49:29;10.20;99.90
33831;DHT22;20137;48.834;8.732;2023-02-18T16:51:55;10.20;99.90
33831;DHT22;20137;48.834;8.732;2023-02-18T16:54:21;10.20;99.90
33831;DHT22;20137;48.834;8.732;2023-02-18T16:56:47;10.20;99.90
33831;DHT22;20137;48.834;8.732;2023-02-18T16:59:12;10.10;99.90
33831;DHT22;20137;48.834;8.732;2023-02-18T17:01:42;10.00;99.90
33831;DHT22;20137;48.834;8.732;2023-02-18T17:04:17;10.10;99.90
33831;DHT22;20137;48.834;8.732;2023-02-18T17:06:43;10.00;99.90
33831;DHT22;20137;48.834;8.732;2023-02-18T17:09:17;10.10;99.90
33831;DHT22;20137;48.834;8.732;2023-02-18T17:11:45;10.00;99.90
33831;DHT22;20137;48.834;8.732;2023-02-18T17:14:19;10.00;99.90
33831;DHT22;20137;48.834;8.732;2023-02-18T17:16:46;10.00;99.90
33831;DHT22;20137;48.834;8.732;2023-02-18T17:19:12;10.00;99.90
33831;DHT22;20137;48.834;8.732;2023-02-18T17:21:37;10.00;99.90
33831;DHT22;20137;48.834;8.732;2023-02-18T17:24:03;10.00;99.90
33831;DHT22;20137;48.834;8.732;2023-02-18T17:26:30;10.00;99.90
33831;DHT22;20137;48.834;8.732;2023-02-18T17:28:57;9.90;99.90
33831;DHT22;20137;48.834;8.732;2023-02-18T17:33:54;9.90;99.90
33831;DHT22;20137;48.834;8.732;2023-02-18T17:36:21;9.90;99.90
33831;DHT22;20137;48.834;8.732;2023-02-18T17:38:47;10.00;99.90
33831;DHT22;20137;48.834;8.732;2023-02-18T17:41:14;10.00;99.90